Time;durP1;ratioP1;P1;durP2;ratioP2;P2;SDS_P1;SDS_P2;PMS_P1;PMS_P2;Temp;Humidity;BMP_temperature;BMP_pressure;BME280_temperature;BME280_humidity;BME280_pressure;Samples;Min_cycle;Max_cycle;Signal;HPM_P1;HPM_P2
2024/01/12 00:01:12;;;;;;;97.28;91.78;;;;;;;;;;5044652;28;21193;-61
2024/01/12 00:03:39;;;;;;;111.90;105.47;;;;;;;;;;5040785;28;20429;-61
2024/01/12 00:06:06;;;;;;;101.88;96.13;;;;;;;;;;5037431;28;20439;-61
2024/01/12 00:08:34;;;;;;;115.05;108.95;;;;;;;;;;5046258;28;20512;-61
2024/01/12 00:11:01;;;;;;;105.45;99.20;;;;;;;;;;5036315;28;20427;-61
2024/01/12 00:13:30;;;;;;;101.28;95.03;;;;;;;;;;5037790;28;20442;-61
2024/01/12 00:16:00;;;;;;;96.82;91.38;;;;;;;;;;5041438;28;20489;-61
2024/01/12 00:18:28;;;;;;;95.88;90.45;;;;;;;;;;5028726;28;20802;-61
2024/01/12 00:21:01;;;;;;;90.72;85.50;;;;;;;;;;5034275;28;20480;-61
2024/01/12 00:23:28;;;;;;;92.28;87.15;;;;;;;;;;5037794;28;20433;-61
2024/01/12 00:25:59;;;;;;;100.30;94.55;;;;;;;;;;5037740;28;20437;-61
2024/01/12 00:28:27;;;;;;;103.88;98.03;;;;;;;;;;5040295;28;20787;-61
2024/01/12 00:30:55;;;;;;;99.60;93.93;;;;;;;;;;5044299;28;20432;-61
2024/01/12 00:33:22;;;;;;;103.43;97.63;;;;;;;;;;5037989;28;20429;-61
2024/01/12 00:35:50;;;;;;;105.47;99.47;;;;;;;;;;5040517;28;20426;-62
2024/01/12 00:38:17;;;;;;;105.63;99.63;;;;;;;;;;5030572;28;20435;-60
2024/01/12 00:40:44;;;;;;;97.90;92.30;;;;;;;;;;5035928;28;20435;-60
2024/01/12 00:43:12;;;;;;;100.18;94.30;;;;;;;;;;5046208;28;20436;-60
2024/01/12 00:45:42;;;;;;;106.35;100.20;;;;;;;;;;5039338;28;20923;-60
2024/01/12 00:48:12;;;;;;;100.43;94.82;;;;;;;;;;5037571;28;20543;-60
2024/01/12 00:50:43;;;;;;;107.63;101.43;;;;;;;;;;5042924;28;20431;-60
2024/01/12 00:53:13;;;;;;;99.65;94.05;;;;;;;;;;5035530;28;20516;-60
2024/01/12 00:55:43;;;;;;;100.63;94.82;;;;;;;;;;5039383;28;20452;-61
2024/01/12 00:58:11;;;;;;;106.47;100.40;;;;;;;;;;5045371;28;20430;-60
2024/01/12 01:00:42;;;;;;;105.75;99.63;;;;;;;;;;5034736;28;20521;-61
2024/01/12 01:03:09;;;;;;;107.15;101.10;;;;;;;;;;5032659;28;20423;-60
2024/01/12 01:05:36;;;;;;;109.65;103.40;;;;;;;;;;5034356;28;20431;-61
2024/01/12 01:08:03;;;;;;;108.00;101.78;;;;;;;;;;5040795;28;20427;-60
2024/01/12 01:10:31;;;;;;;107.13;101.00;;;;;;;;;;5036250;28;20530;-60
2024/01/12 01:12:58;;;;;;;105.15;99.15;;;;;;;;;;5035080;28;20438;-60
2024/01/12 01:15:25;;;;;;;99.85;94.13;;;;;;;;;;5039355;28;20448;-59
2024/01/12 01:17:52;;;;;;;106.03;100.13;;;;;;;;;;5042687;28;20434;-63
2024/01/12 01:20:19;;;;;;;103.90;97.95;;;;;;;;;;5034119;28;20430;-60
2024/01/12 01:22:47;;;;;;;106.38;100.22;;;;;;;;;;5035159;28;20436;-60
2024/01/12 01:25:21;;;;;;;104.63;98.68;;;;;;;;;;5043112;28;20473;-60
2024/01/12 01:27:51;;;;;;;104.10;98.20;;;;;;;;;;5044095;28;20432;-60
2024/01/12 01:30:18;;;;;;;102.40;96.70;;;;;;;;;;5038687;28;20476;-60
2024/01/12 01:32:47;;;;;;;99.75;94.07;;;;;;;;;;5043440;28;20434;-59
2024/01/12 01:35:16;;;;;;;108.30;102.10;;;;;;;;;;5037761;28;20429;-60
2024/01/12 01:37:44;;;;;;;109.20;102.63;;;;;;;;;;5039286;28;20433;-60
2024/01/12 01:40:11;;;;;;;104.50;98.72;;;;;;;;;;5041038;28;20425;-60
2024/01/12 01:42:39;;;;;;;101.32;95.68;;;;;;;;;;5044960;28;20502;-60
2024/01/12 01:45:09;;;;;;;104.80;98.77;;;;;;;;;;5036764;28;20514;-59
2024/01/12 01:47:43;;;;;;;105.53;99.68;;;;;;;;;;5040752;28;20434;-59
2024/01/12 01:50:10;;;;;;;97.13;91.53;;;;;;;;;;5035979;28;20529;-60
2024/01/12 01:52:38;;;;;;;101.00;95.33;;;;;;;;;;5037814;28;20901;-60
2024/01/12 01:55:06;;;;;;;94.63;89.13;;;;;;;;;;5038209;28;20444;-59
2024/01/12 01:57:33;;;;;;;97.38;91.78;;;;;;;;;;5047414;28;20997;-60
2024/01/12 02:00:00;;;;;;;97.60;91.95;;;;;;;;;;5029028;28;20434;-60
2024/01/12 02:02:28;;;;;;;99.75;94.07;;;;;;;;;;5046704;28;20440;-60
2024/01/12 02:04:58;;;;;;;100.20;94.50;;;;;;;;;;5039490;28;20990;-60
2024/01/12 02:07:25;;;;;;;99.25;93.55;;;;;;;;;;5041051;28;20522;-60
2024/01/12 02:09:53;;;;;;;102.65;96.35;;;;;;;;;;5036623;28;20482;-60
2024/01/12 02:12:23;;;;;;;120.57;114.05;;;;;;;;;;5045566;28;20909;-60
2024/01/12 02:14:50;;;;;;;108.28;102.18;;;;;;;;;;5040508;28;20488;-60
2024/01/12 02:17:17;;;;;;;113.43;107.35;;;;;;;;;;5037650;28;20926;-60
2024/01/12 02:19:45;;;;;;;107.68;101.80;;;;;;;;;;5040085;28;20465;-60
2024/01/12 02:22:12;;;;;;;130.43;123.70;;;;;;;;;;5029878;28;20439;-60
2024/01/12 02:24:39;;;;;;;99.47;93.82;;;;;;;;;;5041049;28;20501;-60
2024/01/12 02:27:06;;;;;;;115.60;108.70;;;;;;;;;;5032087;28;20430;-59
2024/01/12 02:29:34;;;;;;;107.93;101.93;;;;;;;;;;5041186;28;20949;-60
2024/01/12 02:32:01;;;;;;;110.68;104.75;;;;;;;;;;5037940;28;20937;-60
2024/01/12 02:34:31;;;;;;;104.93;99.15;;;;;;;;;;5043251;28;20425;-60
2024/01/12 02:36:58;;;;;;;115.07;108.80;;;;;;;;;;5040684;28;20549;-60
2024/01/12 02:39:25;;;;;;;105.90;99.87;;;;;;;;;;5046981;28;20954;-60
2024/01/12 02:41:57;;;;;;;97.28;91.57;;;;;;;;;;5042244;28;20430;-59
2024/01/12 02:44:25;;;;;;;103.45;97.65;;;;;;;;;;5031939;28;20471;-60
2024/01/12 02:46:52;;;;;;;109.50;103.60;;;;;;;;;;5042050;28;20497;-60
2024/01/12 02:49:19;;;;;;;123.05;116.35;;;;;;;;;;5043219;28;20433;-59
2024/01/12 02:51:46;;;;;;;109.47;103.18;;;;;;;;;;5041549;28;20443;-59
2024/01/12 02:54:16;;;;;;;109.53;103.55;;;;;;;;;;5023681;28;20540;-59
2024/01/12 02:56:43;;;;;;;101.88;96.20;;;;;;;;;;5029564;28;20437;-60
2024/01/12 02:59:10;;;;;;;103.97;97.82;;;;;;;;;;5030686;28;20511;-59
2024/01/12 03:01:37;;;;;;;100.13;94.40;;;;;;;;;;5036457;28;20441;-59
2024/01/12 03:04:08;;;;;;;101.13;95.45;;;;;;;;;;5028948;28;20454;-60
2024/01/12 03:06:35;;;;;;;116.90;110.63;;;;;;;;;;5033733;28;20438;-60
2024/01/12 03:09:02;;;;;;;109.57;103.57;;;;;;;;;;5039981;28;20438;-60
2024/01/12 03:11:29;;;;;;;112.18;106.05;;;;;;;;;;5031398;28;20466;-60
2024/01/12 03:13:57;;;;;;;116.40;110.03;;;;;;;;;;5038477;28;20431;-60
2024/01/12 03:16:24;;;;;;;111.38;105.18;;;;;;;;;;5042562;28;20856;-59
2024/01/12 03:18:51;;;;;;;115.00;108.53;;;;;;;;;;5039180;28;20437;-60
2024/01/12 03:21:18;;;;;;;130.80;123.82;;;;;;;;;;5043056;28;20824;-60
2024/01/12 03:23:47;;;;;;;127.35;120.43;;;;;;;;;;5030894;28;20447;-59
2024/01/12 03:26:15;;;;;;;139.57;132.18;;;;;;;;;;5028254;28;20433;-60
2024/01/12 03:28:42;;;;;;;119.70;113.20;;;;;;;;;;5027544;28;20437;-59
2024/01/12 03:31:09;;;;;;;119.57;113.20;;;;;;;;;;5028836;28;20422;-60
2024/01/12 03:33:38;;;;;;;122.15;115.72;;;;;;;;;;5034605;28;20786;-60
2024/01/12 03:36:07;;;;;;;116.03;109.78;;;;;;;;;;5034793;28;20536;-60
2024/01/12 03:38:35;;;;;;;121.72;115.15;;;;;;;;;;5041567;28;20457;-60
2024/01/12 03:41:10;;;;;;;122.35;115.78;;;;;;;;;;5035616;28;20429;-60
2024/01/12 03:43:38;;;;;;;126.45;119.63;;;;;;;;;;5033262;28;20485;-60
2024/01/12 03:46:05;;;;;;;104.05;98.50;;;;;;;;;;5046729;28;20452;-60
2024/01/12 03:48:32;;;;;;;114.47;108.50;;;;;;;;;;5040107;28;20525;-60
2024/01/12 03:51:02;;;;;;;101.45;96.07;;;;;;;;;;5039500;28;20915;-60
2024/01/12 03:53:30;;;;;;;104.85;99.05;;;;;;;;;;5044403;28;20935;-60
2024/01/12 03:55:57;;;;;;;115.30;108.88;;;;;;;;;;5033273;28;20529;-60
2024/01/12 03:58:25;;;;;;;106.03;100.15;;;;;;;;;;5042750;28;20516;-60
2024/01/12 04:00:52;;;;;;;106.73;100.60;;;;;;;;;;5043534;28;20439;-59
2024/01/12 04:03:21;;;;;;;117.35;110.82;;;;;;;;;;5033635;28;20481;-60
2024/01/12 04:05:48;;;;;;;130.55;123.57;;;;;;;;;;5042411;28;20555;-59
2024/01/12 04:08:16;;;;;;;143.07;135.52;;;;;;;;;;5034093;28;20431;-60
2024/01/12 04:10:43;;;;;;;135.75;128.57;;;;;;;;;;5044582;28;20447;-59
2024/01/12 04:13:12;;;;;;;127.00;120.03;;;;;;;;;;5038530;28;20489;-60
2024/01/12 04:15:40;;;;;;;156.17;147.90;;;;;;;;;;5043549;28;20437;-60
2024/01/12 04:18:07;;;;;;;117.75;111.40;;;;;;;;;;5031657;28;20786;-60
2024/01/12 04:20:35;;;;;;;125.57;118.90;;;;;;;;;;5031011;28;20465;-60
2024/01/12 04:23:05;;;;;;;165.35;156.45;;;;;;;;;;5035876;28;20435;-59
2024/01/12 04:25:32;;;;;;;123.35;116.75;;;;;;;;;;5043585;28;20819;-60
2024/01/12 04:27:59;;;;;;;123.10;116.43;;;;;;;;;;5038054;28;20457;-60
2024/01/12 04:30:26;;;;;;;110.03;103.93;;;;;;;;;;5033135;28;20477;-60
2024/01/12 04:32:54;;;;;;;109.53;103.57;;;;;;;;;;5037205;28;20937;-60
2024/01/12 04:35:21;;;;;;;130.65;123.63;;;;;;;;;;5044540;28;20429;-61
2024/01/12 04:37:51;;;;;;;95.22;89.90;;;;;;;;;;5029357;28;20437;-59
2024/01/12 04:40:22;;;;;;;92.15;87.00;;;;;;;;;;5037710;28;20937;-59
2024/01/12 04:42:52;;;;;;;89.47;84.27;;;;;;;;;;5042296;28;20514;-59
2024/01/12 04:45:19;;;;;;;94.20;88.82;;;;;;;;;;5038918;28;20445;-60
2024/01/12 04:47:46;;;;;;;100.07;94.47;;;;;;;;;;5033689;28;20429;-60
2024/01/12 04:50:14;;;;;;;103.65;97.95;;;;;;;;;;5034657;28;20433;-59
2024/01/12 04:52:41;;;;;;;120.82;114.18;;;;;;;;;;5036163;28;20435;-60
2024/01/12 04:55:10;;;;;;;127.00;120.18;;;;;;;;;;5039928;28;20479;-59
2024/01/12 04:57:37;;;;;;;109.60;102.70;;;;;;;;;;5041122;28;20520;-59
2024/01/12 05:00:08;;;;;;;107.32;101.30;;;;;;;;;;5040940;28;20481;-59
2024/01/12 05:02:35;;;;;;;101.30;95.50;;;;;;;;;;5030898;28;20438;-59
2024/01/12 05:05:04;;;;;;;108.00;101.75;;;;;;;;;;5038722;28;20463;-59
2024/01/12 05:07:31;;;;;;;139.82;132.43;;;;;;;;;;5039575;28;21090;-59
2024/01/12 05:09:58;;;;;;;141.20;133.77;;;;;;;;;;5040837;28;20541;-60
2024/01/12 05:12:26;;;;;;;141.05;133.70;;;;;;;;;;5048708;28;20510;-59
2024/01/12 05:14:53;;;;;;;129.90;123.00;;;;;;;;;;5035781;28;20983;-59
2024/01/12 05:17:20;;;;;;;132.52;125.57;;;;;;;;;;5031788;28;20432;-59
2024/01/12 05:19:53;;;;;;;122.47;115.75;;;;;;;;;;5041479;28;20436;-59
2024/01/12 05:22:20;;;;;;;150.90;142.05;;;;;;;;;;5049124;28;20433;-59
2024/01/12 05:24:48;;;;;;;141.05;133.38;;;;;;;;;;5040807;28;20434;-59
2024/01/12 05:27:15;;;;;;;140.93;133.65;;;;;;;;;;5043509;28;20494;-59
2024/01/12 05:29:44;;;;;;;121.93;115.63;;;;;;;;;;5032784;28;20484;-59
2024/01/12 05:32:11;;;;;;;139.93;132.73;;;;;;;;;;5041257;28;20429;-59
2024/01/12 05:34:38;;;;;;;131.63;124.90;;;;;;;;;;5049588;28;20439;-60
2024/01/12 05:37:05;;;;;;;133.15;126.35;;;;;;;;;;5038713;28;20463;-59
2024/01/12 05:39:35;;;;;;;124.90;118.50;;;;;;;;;;5050621;28;20429;-59
2024/01/12 05:42:02;;;;;;;106.25;100.75;;;;;;;;;;5046493;28;20464;-59
2024/01/12 05:44:30;;;;;;;126.80;119.90;;;;;;;;;;5047164;28;20437;-59
2024/01/12 05:46:57;;;;;;;135.80;128.45;;;;;;;;;;5040144;28;20466;-59
2024/01/12 05:49:24;;;;;;;134.70;127.57;;;;;;;;;;5032737;28;20466;-59
2024/01/12 05:51:51;;;;;;;140.95;133.45;;;;;;;;;;5044395;28;20512;-59
2024/01/12 05:54:18;;;;;;;135.23;128.02;;;;;;;;;;5039453;28;20437;-60
2024/01/12 05:56:46;;;;;;;143.15;135.43;;;;;;;;;;5047417;28;20436;-60
2024/01/12 05:59:13;;;;;;;155.02;146.88;;;;;;;;;;5032259;28;21219;-59
2024/01/12 06:01:40;;;;;;;148.80;140.33;;;;;;;;;;5042444;28;20425;-59
2024/01/12 06:04:07;;;;;;;131.73;124.72;;;;;;;;;;5035153;28;20436;-59
2024/01/12 06:06:34;;;;;;;142.00;134.70;;;;;;;;;;5048354;28;20856;-59
2024/01/12 06:09:02;;;;;;;159.07;150.55;;;;;;;;;;5044230;28;20655;-59
2024/01/12 06:11:29;;;;;;;133.63;126.57;;;;;;;;;;5037889;28;20432;-59
2024/01/12 06:13:56;;;;;;;115.95;109.55;;;;;;;;;;5048729;28;20436;-59
2024/01/12 06:16:23;;;;;;;134.07;127.05;;;;;;;;;;5047234;28;20911;-59
2024/01/12 06:18:50;;;;;;;173.02;164.30;;;;;;;;;;5039322;28;20447;-59
2024/01/12 06:21:18;;;;;;;147.05;139.48;;;;;;;;;;5035026;28;20694;-59
2024/01/12 06:23:45;;;;;;;143.13;135.63;;;;;;;;;;5038822;28;20916;-59
2024/01/12 06:26:14;;;;;;;137.70;130.60;;;;;;;;;;5037831;28;20577;-59
2024/01/12 06:28:41;;;;;;;164.68;156.38;;;;;;;;;;5038888;28;20442;-59
2024/01/12 06:31:08;;;;;;;152.90;145.15;;;;;;;;;;5031299;28;20482;-59
2024/01/12 06:33:38;;;;;;;154.43;146.73;;;;;;;;;;5046390;28;20433;-59
2024/01/12 06:36:05;;;;;;;162.40;154.18;;;;;;;;;;5044762;28;20425;-59
2024/01/12 06:38:32;;;;;;;139.02;131.88;;;;;;;;;;5041443;28;20440;-59
2024/01/12 06:41:00;;;;;;;133.93;126.97;;;;;;;;;;5030685;28;20509;-59
2024/01/12 06:43:27;;;;;;;113.55;107.63;;;;;;;;;;5040541;28;20435;-59
2024/01/12 06:45:54;;;;;;;118.55;112.10;;;;;;;;;;5046100;28;20696;-59
2024/01/12 06:48:21;;;;;;;118.97;112.35;;;;;;;;;;5036926;28;20427;-59
2024/01/12 06:50:52;;;;;;;164.73;156.10;;;;;;;;;;5044930;28;20429;-59
2024/01/12 06:53:19;;;;;;;150.95;142.73;;;;;;;;;;5038368;28;20516;-58
2024/01/12 06:55:47;;;;;;;139.68;132.63;;;;;;;;;;5037543;28;20425;-59
2024/01/12 06:58:14;;;;;;;137.77;130.52;;;;;;;;;;5039041;28;20533;-59
2024/01/12 07:00:41;;;;;;;159.20;151.07;;;;;;;;;;5041971;28;20433;-59
2024/01/12 07:03:09;;;;;;;129.35;122.63;;;;;;;;;;5038301;28;20434;-59
2024/01/12 07:05:36;;;;;;;138.50;131.35;;;;;;;;;;5040056;28;20433;-59
2024/01/12 07:08:04;;;;;;;139.63;131.82;;;;;;;;;;5047930;28;20433;-59
2024/01/12 07:10:32;;;;;;;143.30;135.88;;;;;;;;;;5036868;28;20507;-59
2024/01/12 07:12:59;;;;;;;129.40;122.45;;;;;;;;;;5045776;28;20440;-63
2024/01/12 07:15:28;;;;;;;134.18;127.22;;;;;;;;;;5042317;28;20489;-59
2024/01/12 07:17:55;;;;;;;143.35;135.95;;;;;;;;;;5034428;28;20459;-59
2024/01/12 07:20:23;;;;;;;141.57;134.27;;;;;;;;;;5041027;28;20448;-59
2024/01/12 07:22:50;;;;;;;186.00;176.57;;;;;;;;;;5047568;28;20824;-59
2024/01/12 07:25:17;;;;;;;148.02;140.38;;;;;;;;;;5035868;28;20553;-58
2024/01/12 07:27:44;;;;;;;154.80;146.88;;;;;;;;;;5035567;28;20433;-59
2024/01/12 07:30:13;;;;;;;147.20;139.52;;;;;;;;;;5034330;28;20433;-59
2024/01/12 07:32:40;;;;;;;140.43;133.23;;;;;;;;;;5038739;28;20432;-59
2024/01/12 07:35:09;;;;;;;173.50;164.57;;;;;;;;;;5030737;28;20514;-59
2024/01/12 07:37:37;;;;;;;137.15;129.98;;;;;;;;;;5044561;28;20473;-59
2024/01/12 07:40:07;;;;;;;135.68;128.68;;;;;;;;;;5042143;28;20425;-59
2024/01/12 07:42:35;;;;;;;110.30;104.38;;;;;;;;;;5041224;28;20524;-59
2024/01/12 07:45:02;;;;;;;158.07;149.27;;;;;;;;;;5032468;28;20431;-59
2024/01/12 07:47:29;;;;;;;164.97;156.03;;;;;;;;;;5037259;28;20432;-59
2024/01/12 07:49:57;;;;;;;154.52;146.45;;;;;;;;;;5045653;28;20834;-59
2024/01/12 07:52:32;;;;;;;159.38;151.07;;;;;;;;;;5116038;27;21054;-59
2024/01/12 07:55:01;;;;;;;161.68;153.20;;;;;;;;;;5091284;28;20433;-58
2024/01/12 07:57:28;;;;;;;172.75;163.82;;;;;;;;;;5121994;27;20806;-59
2024/01/12 07:59:56;;;;;;;154.57;146.40;;;;;;;;;;5099116;28;20520;-59
2024/01/12 08:02:24;;;;;;;162.05;151.82;;;;;;;;;;5103636;28;20520;-59
2024/01/12 08:04:51;;;;;;;138.63;131.30;;;;;;;;;;5105480;27;21094;-59
2024/01/12 08:07:18;;;;;;;155.45;147.40;;;;;;;;;;5112165;27;20476;-59
2024/01/12 08:09:45;;;;;;;140.77;133.37;;;;;;;;;;5111368;28;21073;-59
2024/01/12 08:12:13;;;;;;;149.27;141.43;;;;;;;;;;5097005;28;20772;-58
2024/01/12 08:14:40;;;;;;;169.30;160.23;;;;;;;;;;5100704;28;20472;-58
2024/01/12 08:17:07;;;;;;;133.20;126.40;;;;;;;;;;5099791;28;20843;-58
2024/01/12 08:19:34;;;;;;;138.45;131.43;;;;;;;;;;5122177;27;20506;-58
2024/01/12 08:22:04;;;;;;;136.27;129.27;;;;;;;;;;5106229;28;20459;-58
2024/01/12 08:24:32;;;;;;;150.85;142.93;;;;;;;;;;5110490;28;20427;-58
2024/01/12 08:26:59;;;;;;;152.33;144.63;;;;;;;;;;5099887;27;20491;-59
2024/01/12 08:29:26;;;;;;;131.10;124.35;;;;;;;;;;5103737;28;20462;-59
2024/01/12 08:31:54;;;;;;;130.37;123.40;;;;;;;;;;5100139;28;20513;-59
2024/01/12 08:34:22;;;;;;;133.15;126.20;;;;;;;;;;5103488;28;20424;-59
2024/01/12 08:36:49;;;;;;;127.90;121.40;;;;;;;;;;5104375;28;20930;-60
2024/01/12 08:39:18;;;;;;;147.80;140.23;;;;;;;;;;5123018;27;20902;-60
2024/01/12 08:41:45;;;;;;;113.40;107.45;;;;;;;;;;5117784;27;20425;-59
2024/01/12 08:44:15;;;;;;;107.60;101.80;;;;;;;;;;5109238;28;20814;-58
2024/01/12 08:46:42;;;;;;;124.55;118.00;;;;;;;;;;5102896;28;20440;-59
2024/01/12 08:49:11;;;;;;;139.48;132.27;;;;;;;;;;5101299;28;20425;-59
2024/01/12 08:51:41;;;;;;;139.63;132.10;;;;;;;;;;5092702;28;20425;-59
2024/01/12 08:54:11;;;;;;;147.47;139.90;;;;;;;;;;5094170;28;20607;-58
2024/01/12 08:56:38;;;;;;;144.73;136.18;;;;;;;;;;5107948;28;21113;-58
2024/01/12 08:59:06;;;;;;;144.85;137.55;;;;;;;;;;5097947;28;20509;-59
2024/01/12 09:01:33;;;;;;;140.88;133.65;;;;;;;;;;5103877;28;20771;-59
2024/01/12 09:04:03;;;;;;;117.20;110.70;;;;;;;;;;5073998;28;20831;-58
2024/01/12 09:06:31;;;;;;;118.10;112.10;;;;;;;;;;5097081;28;20579;-58
2024/01/12 09:08:58;;;;;;;137.13;129.88;;;;;;;;;;5093508;28;20428;-58
2024/01/12 09:11:26;;;;;;;133.63;126.72;;;;;;;;;;5098243;28;20509;-60
2024/01/12 09:13:53;;;;;;;132.45;125.68;;;;;;;;;;5093193;28;20425;-60
2024/01/12 09:16:20;;;;;;;128.10;121.63;;;;;;;;;;5106337;28;20956;-60
2024/01/12 09:18:48;;;;;;;135.07;128.18;;;;;;;;;;5089378;28;20475;-60
2024/01/12 09:21:16;;;;;;;134.25;127.22;;;;;;;;;;5083636;28;20434;-60
2024/01/12 09:23:46;;;;;;;133.05;125.88;;;;;;;;;;5086563;28;20430;-59
2024/01/12 09:26:14;;;;;;;136.00;128.98;;;;;;;;;;5104116;28;20425;-60
2024/01/12 09:28:41;;;;;;;140.45;133.05;;;;;;;;;;5094159;28;20427;-60
2024/01/12 09:31:08;;;;;;;135.82;128.80;;;;;;;;;;5085448;28;20425;-60
2024/01/12 09:33:38;;;;;;;135.93;128.98;;;;;;;;;;5096909;28;20438;-60
2024/01/12 09:36:06;;;;;;;134.52;127.28;;;;;;;;;;5101794;28;20527;-60
2024/01/12 09:38:37;;;;;;;133.25;126.47;;;;;;;;;;5088195;28;20425;-58
2024/01/12 09:41:04;;;;;;;151.70;143.87;;;;;;;;;;5088343;28;20430;-59
2024/01/12 09:43:34;;;;;;;144.15;136.57;;;;;;;;;;5089612;28;20434;-59
2024/01/12 09:46:04;;;;;;;160.65;152.43;;;;;;;;;;5090612;28;20944;-59
2024/01/12 09:48:40;;;;;;;154.20;146.40;;;;;;;;;;5119424;27;20437;-58
2024/01/12 09:51:12;;;;;;;168.82;160.13;;;;;;;;;;5090450;28;20430;-59
2024/01/12 09:53:39;;;;;;;180.32;171.18;;;;;;;;;;5090502;28;20510;-59
2024/01/12 09:56:06;;;;;;;171.77;163.13;;;;;;;;;;5071174;28;20805;-59
2024/01/12 09:58:39;;;;;;;160.65;152.50;;;;;;;;;;5084889;28;20775;-59
2024/01/12 10:01:12;;;;;;;157.60;149.40;;;;;;;;;;5086234;28;20486;-58
2024/01/12 10:03:40;;;;;;;154.38;146.52;;;;;;;;;;5095318;28;20477;-59
2024/01/12 10:06:07;;;;;;;156.60;148.60;;;;;;;;;;5079784;28;20440;-59
2024/01/12 10:08:35;;;;;;;154.02;146.13;;;;;;;;;;5081043;28;20436;-58
2024/01/12 10:11:03;;;;;;;157.75;149.80;;;;;;;;;;5105244;28;20450;-59
2024/01/12 10:13:30;;;;;;;150.73;143.00;;;;;;;;;;5088034;28;20860;-58
2024/01/12 10:15:57;;;;;;;150.52;142.85;;;;;;;;;;5085598;28;20425;-59
2024/01/12 10:18:24;;;;;;;160.40;152.30;;;;;;;;;;5096538;28;20429;-58
2024/01/12 10:20:55;;;;;;;133.38;126.50;;;;;;;;;;5077561;28;20893;-59
2024/01/12 10:23:26;;;;;;;140.30;133.20;;;;;;;;;;5088486;28;20902;-59
2024/01/12 10:26:00;;;;;;;156.68;148.70;;;;;;;;;;5101615;28;20431;-60
2024/01/12 10:28:29;;;;;;;126.50;120.00;;;;;;;;;;5080739;28;20432;-59
2024/01/12 10:30:59;;;;;;;138.15;131.13;;;;;;;;;;5095207;28;20638;-59
2024/01/12 10:33:29;;;;;;;145.40;137.98;;;;;;;;;;5083815;28;20424;-58
2024/01/12 10:36:06;;;;;;;148.83;141.23;;;;;;;;;;5092245;28;20429;-58
2024/01/12 10:38:38;;;;;;;133.93;127.07;;;;;;;;;;5097006;28;20508;-59
2024/01/12 10:41:07;;;;;;;107.73;102.17;;;;;;;;;;5096365;28;20426;-58
2024/01/12 10:43:36;;;;;;;120.00;113.90;;;;;;;;;;5097215;28;20481;-59
2024/01/12 10:46:10;;;;;;;126.57;120.07;;;;;;;;;;5095120;28;20418;-58
2024/01/12 10:48:55;;;;;;;132.43;125.65;;;;;;;;;;5111305;27;20455;-59
2024/01/12 10:51:26;;;;;;;146.52;139.07;;;;;;;;;;5078255;28;20523;-59
2024/01/12 10:54:01;;;;;;;165.65;157.38;;;;;;;;;;5096113;28;20460;-58
2024/01/12 10:56:30;;;;;;;181.35;172.35;;;;;;;;;;5072494;28;20440;-58
2024/01/12 10:58:57;;;;;;;179.35;170.43;;;;;;;;;;5082431;28;20967;-59
2024/01/12 11:01:24;;;;;;;184.80;175.65;;;;;;;;;;5087220;28;20425;-59
2024/01/12 11:03:51;;;;;;;191.23;181.68;;;;;;;;;;5081204;28;20433;-59
2024/01/12 11:06:19;;;;;;;176.30;167.45;;;;;;;;;;5093251;28;20910;-59
2024/01/12 11:08:50;;;;;;;161.90;153.68;;;;;;;;;;5090525;28;20526;-58
2024/01/12 11:11:20;;;;;;;159.63;151.55;;;;;;;;;;5095919;28;20434;-59
2024/01/12 11:13:48;;;;;;;160.20;152.05;;;;;;;;;;5102009;28;20447;-58
2024/01/12 11:16:15;;;;;;;158.80;150.68;;;;;;;;;;5083512;28;20426;-62
2024/01/12 11:18:42;;;;;;;171.90;163.20;;;;;;;;;;5092724;28;20477;-61
2024/01/12 11:21:09;;;;;;;161.63;153.48;;;;;;;;;;5077253;28;20434;-62
2024/01/12 11:23:44;;;;;;;163.80;155.40;;;;;;;;;;5092898;27;20442;-61
2024/01/12 11:26:14;;;;;;;160.02;151.88;;;;;;;;;;5085831;28;20425;-61
2024/01/12 11:28:41;;;;;;;162.52;154.23;;;;;;;;;;5100398;28;20758;-62
2024/01/12 11:31:10;;;;;;;160.90;152.73;;;;;;;;;;5098673;28;20507;-62
2024/01/12 11:33:39;;;;;;;154.88;147.02;;;;;;;;;;5102334;28;20457;-61
2024/01/12 11:36:10;;;;;;;149.93;142.25;;;;;;;;;;5088624;28;20437;-61
2024/01/12 11:38:40;;;;;;;153.60;145.85;;;;;;;;;;5087335;28;20525;-61
2024/01/12 11:41:11;;;;;;;166.65;158.20;;;;;;;;;;5079157;28;20427;-61
2024/01/12 11:43:39;;;;;;;152.40;144.38;;;;;;;;;;5093575;28;20511;-62
2024/01/12 11:46:06;;;;;;;177.75;168.48;;;;;;;;;;5104705;28;20503;-61
2024/01/12 11:48:33;;;;;;;155.57;147.70;;;;;;;;;;5089546;28;20786;-61
2024/01/12 11:51:03;;;;;;;149.50;141.93;;;;;;;;;;5091126;28;20471;-62
2024/01/12 11:53:33;;;;;;;164.53;156.13;;;;;;;;;;5090322;28;20427;-61
2024/01/12 11:56:00;;;;;;;172.05;163.35;;;;;;;;;;5087647;28;20498;-63
2024/01/12 11:58:30;;;;;;;166.93;158.43;;;;;;;;;;5073093;28;20432;-62
2024/01/12 12:00:57;;;;;;;151.15;143.52;;;;;;;;;;5085174;28;20444;-63
2024/01/12 12:03:27;;;;;;;143.88;136.52;;;;;;;;;;5088532;28;21081;-63
2024/01/12 12:05:54;;;;;;;142.37;135.07;;;;;;;;;;5087838;28;20422;-63
2024/01/12 12:08:22;;;;;;;147.25;139.57;;;;;;;;;;5085982;28;20469;-63
2024/01/12 12:10:49;;;;;;;166.80;158.45;;;;;;;;;;5095273;28;20428;-62
2024/01/12 12:13:22;;;;;;;150.13;142.03;;;;;;;;;;5081929;28;20443;-62
2024/01/12 12:15:49;;;;;;;107.20;101.50;;;;;;;;;;5092363;28;20460;-63
2024/01/12 12:18:19;;;;;;;122.45;116.15;;;;;;;;;;5098405;28;20415;-64
2024/01/12 12:20:47;;;;;;;142.80;135.23;;;;;;;;;;5085965;28;20446;-62
2024/01/12 12:23:14;;;;;;;156.27;148.38;;;;;;;;;;5085955;28;20466;-62
2024/01/12 12:25:42;;;;;;;140.07;132.90;;;;;;;;;;5085033;28;20431;-63
2024/01/12 12:28:10;;;;;;;140.82;133.60;;;;;;;;;;5089888;28;20975;-63
2024/01/12 12:30:40;;;;;;;168.98;160.27;;;;;;;;;;5090963;28;20519;-62
2024/01/12 12:33:08;;;;;;;152.90;145.10;;;;;;;;;;5079871;28;20425;-62
2024/01/12 12:35:36;;;;;;;139.93;132.43;;;;;;;;;;5078827;28;20437;-62
2024/01/12 12:38:04;;;;;;;143.20;135.93;;;;;;;;;;5091695;28;20899;-62
2024/01/12 12:40:32;;;;;;;135.30;128.15;;;;;;;;;;5088841;28;20479;-63
2024/01/12 12:42:59;;;;;;;148.13;140.35;;;;;;;;;;5090498;28;20429;-65
2024/01/12 12:45:27;;;;;;;147.60;139.80;;;;;;;;;;5082191;28;20474;-63
2024/01/12 12:47:54;;;;;;;140.98;133.82;;;;;;;;;;5095064;28;20506;-63
2024/01/12 12:50:21;;;;;;;135.90;128.85;;;;;;;;;;5097509;28;20806;-63
2024/01/12 12:52:51;;;;;;;122.63;116.13;;;;;;;;;;5089823;28;20931;-63
2024/01/12 12:55:22;;;;;;;115.50;109.25;;;;;;;;;;5094865;28;21131;-60
2024/01/12 12:57:49;;;;;;;116.90;110.75;;;;;;;;;;5082131;28;20524;-63
2024/01/12 13:00:20;;;;;;;97.63;92.40;;;;;;;;;;5096054;28;20515;-63
2024/01/12 13:02:48;;;;;;;121.88;115.30;;;;;;;;;;5085330;28;20441;-60
2024/01/12 13:05:17;;;;;;;133.88;126.97;;;;;;;;;;5080625;28;20929;-62
2024/01/12 13:07:45;;;;;;;124.22;117.82;;;;;;;;;;5089042;28;20429;-62
2024/01/12 13:10:12;;;;;;;106.15;100.10;;;;;;;;;;5090323;28;20453;-62
2024/01/12 13:12:39;;;;;;;128.32;121.68;;;;;;;;;;5109868;27;20507;-62
2024/01/12 13:15:15;;;;;;;119.28;112.95;;;;;;;;;;5098113;28;20426;-62
2024/01/12 13:17:48;;;;;;;122.43;116.03;;;;;;;;;;5079325;28;20429;-62
2024/01/12 13:20:16;;;;;;;121.13;114.75;;;;;;;;;;5119175;27;20426;-62
2024/01/12 13:22:44;;;;;;;119.82;113.43;;;;;;;;;;5083601;28;20800;-62
2024/01/12 13:25:11;;;;;;;124.78;118.22;;;;;;;;;;5087902;28;20523;-62
2024/01/12 13:27:41;;;;;;;134.43;127.53;;;;;;;;;;5087923;28;20487;-62
2024/01/12 13:30:15;;;;;;;143.93;136.30;;;;;;;;;;5091683;28;20946;-62
2024/01/12 13:32:42;;;;;;;138.48;131.20;;;;;;;;;;5077836;28;20980;-62
2024/01/12 13:35:10;;;;;;;135.60;128.57;;;;;;;;;;5081736;28;21158;-63
2024/01/12 13:37:37;;;;;;;135.10;127.93;;;;;;;;;;5097998;28;20910;-63
2024/01/12 13:40:11;;;;;;;127.47;120.78;;;;;;;;;;5096263;28;20432;-63
2024/01/12 13:42:40;;;;;;;120.10;113.75;;;;;;;;;;5081067;28;20434;-63
2024/01/12 13:45:07;;;;;;;143.20;135.65;;;;;;;;;;5088670;28;20880;-63
2024/01/12 13:47:35;;;;;;;131.95;125.05;;;;;;;;;;5105408;28;20429;-63
2024/01/12 13:50:02;;;;;;;127.95;121.40;;;;;;;;;;5088889;28;20528;-63
2024/01/12 13:52:33;;;;;;;115.70;109.53;;;;;;;;;;5087174;28;20917;-63
2024/01/12 13:55:04;;;;;;;122.53;116.00;;;;;;;;;;5095819;28;20428;-63
2024/01/12 13:57:31;;;;;;;117.20;110.90;;;;;;;;;;5087327;28;20581;-63
2024/01/12 13:59:58;;;;;;;85.63;80.63;;;;;;;;;;5083769;28;20506;-63
2024/01/12 14:02:26;;;;;;;94.22;89.03;;;;;;;;;;5086838;28;20429;-63